sensor_id;sensor_type;location;lat;lon;timestamp;P1;P2;P0
61815;PMS5003;73144;-35.164;149.098;2024-02-16T00:01:16;2;2;
61815;PMS5003;73144;-35.164;149.098;2024-02-16T00:03:46;1;1;
61815;PMS5003;73144;-35.164;149.098;2024-02-16T00:06:15;0;0;
61815;PMS5003;73144;-35.164;149.098;2024-02-16T00:08:43;1;1;
61815;PMS5003;73144;-35.164;149.098;2024-02-16T00:11:13;1;1;
61815;PMS5003;73144;-35.164;149.098;2024-02-16T00:13:41;1;1;
61815;PMS5003;73144;-35.164;149.098;2024-02-16T00:16:10;2;2;
61815;PMS5003;73144;-35.164;149.098;2024-02-16T00:18:38;2;2;
61815;PMS5003;73144;-35.164;149.098;2024-02-16T00:21:07;1;1;
61815;PMS5003;73144;-35.164;149.098;2024-02-16T00:23:35;1;1;
61815;PMS5003;73144;-35.164;149.098;2024-02-16T00:26:05;0;0;
61815;PMS5003;73144;-35.164;149.098;2024-02-16T00:28:33;1;1;
61815;PMS5003;73144;-35.164;149.098;2024-02-16T00:31:02;1;1;
61815;PMS5003;73144;-35.164;149.098;2024-02-16T00:33:31;0;0;
61815;PMS5003;73144;-35.164;149.098;2024-02-16T00:36:00;1;1;
61815;PMS5003;73144;-35.164;149.098;2024-02-16T00:38:29;1;1;
61815;PMS5003;73144;-35.164;149.098;2024-02-16T00:40:58;1;1;
61815;PMS5003;73144;-35.164;149.098;2024-02-16T00:43:26;2;2;
61815;PMS5003;73144;-35.164;149.098;2024-02-16T00:45:55;1;1;
61815;PMS5003;73144;-35.164;149.098;2024-02-16T00:48:24;2;2;
61815;PMS5003;73144;-35.164;149.098;2024-02-16T00:50:53;0;0;
61815;PMS5003;73144;-35.164;149.098;2024-02-16T00:53:21;3;3;
61815;PMS5003;73144;-35.164;149.098;2024-02-16T00:55:50;2;2;
61815;PMS5003;73144;-35.164;149.098;2024-02-16T00:58:18;2;2;
61815;PMS5003;73144;-35.164;149.098;2024-02-16T01:00:47;2;2;
61815;PMS5003;73144;-35.164;149.098;2024-02-16T01:03:16;2;2;
61815;PMS5003;73144;-35.164;149.098;2024-02-16T01:05:45;1;1;
61815;PMS5003;73144;-35.164;149.098;2024-02-16T01:08:13;1;1;
61815;PMS5003;73144;-35.164;149.098;2024-02-16T01:10:42;2;2;
61815;PMS5003;73144;-35.164;149.098;2024-02-16T01:13:10;2;2;
61815;PMS5003;73144;-35.164;149.098;2024-02-16T01:15:40;1;1;
61815;PMS5003;73144;-35.164;149.098;2024-02-16T01:18:08;0;0;
61815;PMS5003;73144;-35.164;149.098;2024-02-16T01:20:37;1;1;
61815;PMS5003;73144;-35.164;149.098;2024-02-16T01:23:06;2;2;
61815;PMS5003;73144;-35.164;149.098;2024-02-16T01:25:35;2;2;
61815;PMS5003;73144;-35.164;149.098;2024-02-16T01:28:04;1;1;
61815;PMS5003;73144;-35.164;149.098;2024-02-16T01:30:33;0;0;
61815;PMS5003;73144;-35.164;149.098;2024-02-16T01:33:02;4;2;
61815;PMS5003;73144;-35.164;149.098;2024-02-16T01:35:31;2;2;
61815;PMS5003;73144;-35.164;149.098;2024-02-16T01:38:00;2;2;
61815;PMS5003;73144;-35.164;149.098;2024-02-16T01:40:30;1;1;
61815;PMS5003;73144;-35.164;149.098;2024-02-16T01:42:59;2;2;
61815;PMS5003;73144;-35.164;149.098;2024-02-16T01:45:28;3;3;
61815;PMS5003;73144;-35.164;149.098;2024-02-16T01:47:57;2;1;
61815;PMS5003;73144;-35.164;149.098;2024-02-16T01:50:26;3;3;
61815;PMS5003;73144;-35.164;149.098;2024-02-16T01:52:56;2;2;
61815;PMS5003;73144;-35.164;149.098;2024-02-16T01:55:25;1;1;
61815;PMS5003;73144;-35.164;149.098;2024-02-16T01:57:54;2;2;
61815;PMS5003;73144;-35.164;149.098;2024-02-16T02:00:25;3;3;
61815;PMS5003;73144;-35.164;149.098;2024-02-16T02:02:54;1;1;
61815;PMS5003;73144;-35.164;149.098;2024-02-16T02:05:23;1;1;
61815;PMS5003;73144;-35.164;149.098;2024-02-16T02:07:53;2;2;
61815;PMS5003;73144;-35.164;149.098;2024-02-16T02:10:22;1;1;
61815;PMS5003;73144;-35.164;149.098;2024-02-16T02:12:51;3;2;
61815;PMS5003;73144;-35.164;149.098;2024-02-16T02:15:20;2;2;
61815;PMS5003;73144;-35.164;149.098;2024-02-16T02:17:49;2;2;
61815;PMS5003;73144;-35.164;149.098;2024-02-16T02:20:18;3;3;
61815;PMS5003;73144;-35.164;149.098;2024-02-16T02:22:47;3;2;
61815;PMS5003;73144;-35.164;149.098;2024-02-16T02:25:16;2;2;
61815;PMS5003;73144;-35.164;149.098;2024-02-16T02:27:46;3;3;
61815;PMS5003;73144;-35.164;149.098;2024-02-16T02:30:15;2;2;
61815;PMS5003;73144;-35.164;149.098;2024-02-16T02:32:44;2;2;
61815;PMS5003;73144;-35.164;149.098;2024-02-16T02:35:14;2;2;
61815;PMS5003;73144;-35.164;149.098;2024-02-16T02:37:44;2;2;
61815;PMS5003;73144;-35.164;149.098;2024-02-16T02:40:13;6;2;
61815;PMS5003;73144;-35.164;149.098;2024-02-16T02:42:42;3;3;
61815;PMS5003;73144;-35.164;149.098;2024-02-16T02:45:12;1;1;
61815;PMS5003;73144;-35.164;149.098;2024-02-16T02:47:41;2;2;
61815;PMS5003;73144;-35.164;149.098;2024-02-16T02:50:10;2;2;
61815;PMS5003;73144;-35.164;149.098;2024-02-16T02:52:39;2;2;
61815;PMS5003;73144;-35.164;149.098;2024-02-16T02:55:08;2;2;
61815;PMS5003;73144;-35.164;149.098;2024-02-16T02:57:38;2;2;
61815;PMS5003;73144;-35.164;149.098;2024-02-16T03:00:07;2;2;
61815;PMS5003;73144;-35.164;149.098;2024-02-16T03:02:36;2;2;
61815;PMS5003;73144;-35.164;149.098;2024-02-16T03:05:06;2;2;
61815;PMS5003;73144;-35.164;149.098;2024-02-16T03:07:35;1;1;
61815;PMS5003;73144;-35.164;149.098;2024-02-16T03:10:06;3;3;
61815;PMS5003;73144;-35.164;149.098;2024-02-16T03:12:35;2;2;
61815;PMS5003;73144;-35.164;149.098;2024-02-16T03:15:05;2;2;
61815;PMS5003;73144;-35.164;149.098;2024-02-16T03:17:35;2;2;
61815;PMS5003;73144;-35.164;149.098;2024-02-16T03:20:05;4;3;
61815;PMS5003;73144;-35.164;149.098;2024-02-16T03:22:34;2;2;
61815;PMS5003;73144;-35.164;149.098;2024-02-16T03:25:03;1;1;
61815;PMS5003;73144;-35.164;149.098;2024-02-16T03:27:32;1;1;
61815;PMS5003;73144;-35.164;149.098;2024-02-16T03:30:02;2;2;
61815;PMS5003;73144;-35.164;149.098;2024-02-16T03:32:32;2;2;
61815;PMS5003;73144;-35.164;149.098;2024-02-16T03:35:01;3;3;
61815;PMS5003;73144;-35.164;149.098;2024-02-16T03:37:30;3;3;
61815;PMS5003;73144;-35.164;149.098;2024-02-16T03:39:59;2;2;
61815;PMS5003;73144;-35.164;149.098;2024-02-16T03:42:28;2;2;
61815;PMS5003;73144;-35.164;149.098;2024-02-16T03:44:58;3;3;
61815;PMS5003;73144;-35.164;149.098;2024-02-16T03:47:27;2;2;
61815;PMS5003;73144;-35.164;149.098;2024-02-16T03:49:56;2;2;
61815;PMS5003;73144;-35.164;149.098;2024-02-16T03:52:26;5;3;
61815;PMS5003;73144;-35.164;149.098;2024-02-16T03:54:55;1;1;
61815;PMS5003;73144;-35.164;149.098;2024-02-16T03:57:24;3;3;
61815;PMS5003;73144;-35.164;149.098;2024-02-16T03:59:53;4;4;
61815;PMS5003;73144;-35.164;149.098;2024-02-16T04:02:23;4;3;
61815;PMS5003;73144;-35.164;149.098;2024-02-16T04:04:52;2;2;
61815;PMS5003;73144;-35.164;149.098;2024-02-16T04:07:21;2;2;
61815;PMS5003;73144;-35.164;149.098;2024-02-16T04:09:51;3;3;
61815;PMS5003;73144;-35.164;149.098;2024-02-16T04:12:19;3;3;
61815;PMS5003;73144;-35.164;149.098;2024-02-16T04:14:49;3;3;
61815;PMS5003;73144;-35.164;149.098;2024-02-16T04:17:18;4;4;
61815;PMS5003;73144;-35.164;149.098;2024-02-16T04:19:47;3;3;
61815;PMS5003;73144;-35.164;149.098;2024-02-16T04:22:16;4;4;
61815;PMS5003;73144;-35.164;149.098;2024-02-16T04:24:46;5;4;
61815;PMS5003;73144;-35.164;149.098;2024-02-16T04:27:15;4;3;
61815;PMS5003;73144;-35.164;149.098;2024-02-16T04:29:44;4;4;
61815;PMS5003;73144;-35.164;149.098;2024-02-16T04:32:14;4;3;
61815;PMS5003;73144;-35.164;149.098;2024-02-16T04:34:43;3;3;
61815;PMS5003;73144;-35.164;149.098;2024-02-16T04:37:12;3;3;
61815;PMS5003;73144;-35.164;149.098;2024-02-16T04:39:42;4;4;
61815;PMS5003;73144;-35.164;149.098;2024-02-16T04:42:11;4;3;
61815;PMS5003;73144;-35.164;149.098;2024-02-16T04:44:40;4;4;
61815;PMS5003;73144;-35.164;149.098;2024-02-16T04:47:10;4;4;
61815;PMS5003;73144;-35.164;149.098;2024-02-16T04:49:39;3;3;
61815;PMS5003;73144;-35.164;149.098;2024-02-16T04:52:08;2;2;
61815;PMS5003;73144;-35.164;149.098;2024-02-16T04:54:37;6;5;
61815;PMS5003;73144;-35.164;149.098;2024-02-16T04:57:07;4;4;
61815;PMS5003;73144;-35.164;149.098;2024-02-16T04:59:36;3;3;
61815;PMS5003;73144;-35.164;149.098;2024-02-16T05:02:05;3;3;
61815;PMS5003;73144;-35.164;149.098;2024-02-16T05:04:35;4;4;
61815;PMS5003;73144;-35.164;149.098;2024-02-16T05:07:04;3;3;
61815;PMS5003;73144;-35.164;149.098;2024-02-16T05:09:33;4;3;
61815;PMS5003;73144;-35.164;149.098;2024-02-16T05:12:03;3;1;
61815;PMS5003;73144;-35.164;149.098;2024-02-16T05:14:32;4;4;
61815;PMS5003;73144;-35.164;149.098;2024-02-16T05:17:01;4;4;
61815;PMS5003;73144;-35.164;149.098;2024-02-16T05:19:32;4;4;
61815;PMS5003;73144;-35.164;149.098;2024-02-16T05:22:01;3;3;
61815;PMS5003;73144;-35.164;149.098;2024-02-16T05:24:31;3;3;
61815;PMS5003;73144;-35.164;149.098;2024-02-16T05:27:00;4;4;
61815;PMS5003;73144;-35.164;149.098;2024-02-16T05:29:29;5;5;
61815;PMS5003;73144;-35.164;149.098;2024-02-16T05:31:59;5;5;
61815;PMS5003;73144;-35.164;149.098;2024-02-16T05:34:28;3;3;
61815;PMS5003;73144;-35.164;149.098;2024-02-16T05:36:57;3;3;
61815;PMS5003;73144;-35.164;149.098;2024-02-16T05:39:26;3;3;
61815;PMS5003;73144;-35.164;149.098;2024-02-16T05:41:56;3;3;
61815;PMS5003;73144;-35.164;149.098;2024-02-16T05:44:25;3;3;
61815;PMS5003;73144;-35.164;149.098;2024-02-16T05:46:54;6;3;
61815;PMS5003;73144;-35.164;149.098;2024-02-16T05:49:24;4;4;
61815;PMS5003;73144;-35.164;149.098;2024-02-16T05:51:53;3;3;
61815;PMS5003;73144;-35.164;149.098;2024-02-16T05:54:22;2;2;
61815;PMS5003;73144;-35.164;149.098;2024-02-16T05:56:51;4;3;
61815;PMS5003;73144;-35.164;149.098;2024-02-16T05:59:21;3;2;
61815;PMS5003;73144;-35.164;149.098;2024-02-16T06:01:50;3;3;
61815;PMS5003;73144;-35.164;149.098;2024-02-16T06:04:20;2;2;
61815;PMS5003;73144;-35.164;149.098;2024-02-16T06:06:49;4;4;
61815;PMS5003;73144;-35.164;149.098;2024-02-16T06:09:18;3;3;
61815;PMS5003;73144;-35.164;149.098;2024-02-16T06:11:47;3;3;
61815;PMS5003;73144;-35.164;149.098;2024-02-16T06:14:16;3;3;
61815;PMS5003;73144;-35.164;149.098;2024-02-16T06:16:46;3;3;
61815;PMS5003;73144;-35.164;149.098;2024-02-16T06:19:15;5;5;
61815;PMS5003;73144;-35.164;149.098;2024-02-16T06:21:44;2;2;
61815;PMS5003;73144;-35.164;149.098;2024-02-16T06:24:14;5;4;
61815;PMS5003;73144;-35.164;149.098;2024-02-16T06:26:43;2;2;
61815;PMS5003;73144;-35.164;149.098;2024-02-16T06:29:12;4;4;
61815;PMS5003;73144;-35.164;149.098;2024-02-16T06:31:41;3;3;
61815;PMS5003;73144;-35.164;149.098;2024-02-16T06:34:11;6;4;
61815;PMS5003;73144;-35.164;149.098;2024-02-16T06:36:40;2;2;
61815;PMS5003;73144;-35.164;149.098;2024-02-16T06:39:10;5;3;
61815;PMS5003;73144;-35.164;149.098;2024-02-16T06:41:39;2;2;
61815;PMS5003;73144;-35.164;149.098;2024-02-16T06:44:09;4;3;
61815;PMS5003;73144;-35.164;149.098;2024-02-16T06:46:38;3;3;
61815;PMS5003;73144;-35.164;149.098;2024-02-16T06:49:07;4;3;
61815;PMS5003;73144;-35.164;149.098;2024-02-16T06:51:37;4;4;
61815;PMS5003;73144;-35.164;149.098;2024-02-16T06:54:06;4;3;
61815;PMS5003;73144;-35.164;149.098;2024-02-16T06:56:36;3;3;
61815;PMS5003;73144;-35.164;149.098;2024-02-16T06:59:05;3;3;
61815;PMS5003;73144;-35.164;149.098;2024-02-16T07:01:34;3;3;
61815;PMS5003;73144;-35.164;149.098;2024-02-16T07:04:04;4;4;
61815;PMS5003;73144;-35.164;149.098;2024-02-16T07:06:33;2;2;
61815;PMS5003;73144;-35.164;149.098;2024-02-16T07:09:02;4;4;
61815;PMS5003;73144;-35.164;149.098;2024-02-16T07:11:32;2;2;
61815;PMS5003;73144;-35.164;149.098;2024-02-16T07:14:01;2;2;
61815;PMS5003;73144;-35.164;149.098;2024-02-16T07:16:30;5;5;
61815;PMS5003;73144;-35.164;149.098;2024-02-16T07:19:00;4;4;
61815;PMS5003;73144;-35.164;149.098;2024-02-16T07:21:29;4;4;
61815;PMS5003;73144;-35.164;149.098;2024-02-16T07:23:58;5;4;
61815;PMS5003;73144;-35.164;149.098;2024-02-16T07:26:27;4;4;
61815;PMS5003;73144;-35.164;149.098;2024-02-16T07:28:57;7;5;
61815;PMS5003;73144;-35.164;149.098;2024-02-16T07:31:30;4;4;
61815;PMS5003;73144;-35.164;149.098;2024-02-16T07:34:00;5;5;
61815;PMS5003;73144;-35.164;149.098;2024-02-16T07:36:30;4;4;
61815;PMS5003;73144;-35.164;149.098;2024-02-16T07:39:01;4;4;
61815;PMS5003;73144;-35.164;149.098;2024-02-16T07:41:30;5;4;
61815;PMS5003;73144;-35.164;149.098;2024-02-16T07:43:59;6;3;
61815;PMS5003;73144;-35.164;149.098;2024-02-16T07:46:28;3;3;
61815;PMS5003;73144;-35.164;149.098;2024-02-16T07:48:58;4;3;
61815;PMS5003;73144;-35.164;149.098;2024-02-16T07:51:27;3;3;
61815;PMS5003;73144;-35.164;149.098;2024-02-16T07:53:56;5;5;
61815;PMS5003;73144;-35.164;149.098;2024-02-16T07:56:26;4;4;
61815;PMS5003;73144;-35.164;149.098;2024-02-16T07:58:55;5;5;
61815;PMS5003;73144;-35.164;149.098;2024-02-16T08:01:24;4;2;
61815;PMS5003;73144;-35.164;149.098;2024-02-16T08:03:54;2;2;
61815;PMS5003;73144;-35.164;149.098;2024-02-16T08:06:25;4;2;
61815;PMS5003;73144;-35.164;149.098;2024-02-16T08:08:54;4;4;
61815;PMS5003;73144;-35.164;149.098;2024-02-16T08:11:23;3;3;
61815;PMS5003;73144;-35.164;149.098;2024-02-16T08:13:53;3;3;
61815;PMS5003;73144;-35.164;149.098;2024-02-16T08:16:22;2;2;
61815;PMS5003;73144;-35.164;149.098;2024-02-16T08:18:51;3;3;
61815;PMS5003;73144;-35.164;149.098;2024-02-16T08:21:20;4;4;
61815;PMS5003;73144;-35.164;149.098;2024-02-16T08:23:50;4;4;
61815;PMS5003;73144;-35.164;149.098;2024-02-16T08:26:19;4;4;
61815;PMS5003;73144;-35.164;149.098;2024-02-16T08:28:48;5;4;
61815;PMS5003;73144;-35.164;149.098;2024-02-16T08:31:18;3;3;
61815;PMS5003;73144;-35.164;149.098;2024-02-16T08:33:47;4;4;
61815;PMS5003;73144;-35.164;149.098;2024-02-16T08:36:16;4;4;
61815;PMS5003;73144;-35.164;149.098;2024-02-16T08:38:46;6;6;
61815;PMS5003;73144;-35.164;149.098;2024-02-16T08:41:15;5;5;
61815;PMS5003;73144;-35.164;149.098;2024-02-16T08:43:44;7;5;
61815;PMS5003;73144;-35.164;149.098;2024-02-16T08:46:14;7;6;
61815;PMS5003;73144;-35.164;149.098;2024-02-16T08:48:44;8;6;
61815;PMS5003;73144;-35.164;149.098;2024-02-16T08:51:13;6;5;
61815;PMS5003;73144;-35.164;149.098;2024-02-16T08:53:42;5;5;
61815;PMS5003;73144;-35.164;149.098;2024-02-16T08:56:12;6;6;
61815;PMS5003;73144;-35.164;149.098;2024-02-16T08:58:41;10;6;
61815;PMS5003;73144;-35.164;149.098;2024-02-16T09:01:10;7;6;
61815;PMS5003;73144;-35.164;149.098;2024-02-16T09:03:39;4;4;
61815;PMS5003;73144;-35.164;149.098;2024-02-16T09:06:09;7;5;
61815;PMS5003;73144;-35.164;149.098;2024-02-16T09:08:38;5;5;
61815;PMS5003;73144;-35.164;149.098;2024-02-16T09:11:07;8;7;
61815;PMS5003;73144;-35.164;149.098;2024-02-16T09:13:39;7;7;
61815;PMS5003;73144;-35.164;149.098;2024-02-16T09:16:07;23;19;
61815;PMS5003;73144;-35.164;149.098;2024-02-16T09:18:37;15;15;
61815;PMS5003;73144;-35.164;149.098;2024-02-16T09:21:06;14;13;
61815;PMS5003;73144;-35.164;149.098;2024-02-16T09:23:36;15;12;
61815;PMS5003;73144;-35.164;149.098;2024-02-16T09:26:05;23;20;
61815;PMS5003;73144;-35.164;149.098;2024-02-16T09:28:38;26;19;
61815;PMS5003;73144;-35.164;149.098;2024-02-16T09:31:07;28;26;
61815;PMS5003;73144;-35.164;149.098;2024-02-16T09:33:36;9;9;
61815;PMS5003;73144;-35.164;149.098;2024-02-16T09:36:06;7;7;
61815;PMS5003;73144;-35.164;149.098;2024-02-16T09:38:35;13;9;
61815;PMS5003;73144;-35.164;149.098;2024-02-16T09:41:03;22;20;
61815;PMS5003;73144;-35.164;149.098;2024-02-16T09:43:32;11;11;
61815;PMS5003;73144;-35.164;149.098;2024-02-16T09:46:01;9;7;
61815;PMS5003;73144;-35.164;149.098;2024-02-16T09:48:31;8;7;
61815;PMS5003;73144;-35.164;149.098;2024-02-16T09:51:00;7;6;
61815;PMS5003;73144;-35.164;149.098;2024-02-16T09:53:29;8;8;
61815;PMS5003;73144;-35.164;149.098;2024-02-16T09:55:58;8;6;
61815;PMS5003;73144;-35.164;149.098;2024-02-16T09:58:27;6;5;
61815;PMS5003;73144;-35.164;149.098;2024-02-16T10:00:56;7;7;
61815;PMS5003;73144;-35.164;149.098;2024-02-16T10:03:26;8;7;
61815;PMS5003;73144;-35.164;149.098;2024-02-16T10:06:12;5;5;
61815;PMS5003;73144;-35.164;149.098;2024-02-16T10:08:48;6;5;
61815;PMS5003;73144;-35.164;149.098;2024-02-16T10:11:18;4;4;
61815;PMS5003;73144;-35.164;149.098;2024-02-16T10:13:56;7;6;
61815;PMS5003;73144;-35.164;149.098;2024-02-16T10:16:27;6;6;
61815;PMS5003;73144;-35.164;149.098;2024-02-16T10:18:57;6;6;
61815;PMS5003;73144;-35.164;149.098;2024-02-16T10:21:32;6;6;
61815;PMS5003;73144;-35.164;149.098;2024-02-16T10:24:02;7;6;
61815;PMS5003;73144;-35.164;149.098;2024-02-16T10:26:33;8;8;
61815;PMS5003;73144;-35.164;149.098;2024-02-16T10:29:03;7;7;
61815;PMS5003;73144;-35.164;149.098;2024-02-16T10:31:33;8;7;
61815;PMS5003;73144;-35.164;149.098;2024-02-16T10:34:03;8;6;
61815;PMS5003;73144;-35.164;149.098;2024-02-16T10:36:33;7;6;
61815;PMS5003;73144;-35.164;149.098;2024-02-16T10:39:03;8;6;
61815;PMS5003;73144;-35.164;149.098;2024-02-16T10:41:33;7;4;
61815;PMS5003;73144;-35.164;149.098;2024-02-16T10:44:03;8;6;
61815;PMS5003;73144;-35.164;149.098;2024-02-16T10:46:33;6;6;
61815;PMS5003;73144;-35.164;149.098;2024-02-16T10:49:02;6;6;
61815;PMS5003;73144;-35.164;149.098;2024-02-16T10:51:34;6;6;
61815;PMS5003;73144;-35.164;149.098;2024-02-16T10:54:05;7;7;
61815;PMS5003;73144;-35.164;149.098;2024-02-16T10:56:35;10;8;
61815;PMS5003;73144;-35.164;149.098;2024-02-16T10:59:07;9;6;
61815;PMS5003;73144;-35.164;149.098;2024-02-16T11:01:37;8;6;
61815;PMS5003;73144;-35.164;149.098;2024-02-16T11:04:08;6;6;
61815;PMS5003;73144;-35.164;149.098;2024-02-16T11:06:46;8;7;
61815;PMS5003;73144;-35.164;149.098;2024-02-16T11:09:26;5;4;
61815;PMS5003;73144;-35.164;149.098;2024-02-16T11:11:59;5;4;
61815;PMS5003;73144;-35.164;149.098;2024-02-16T11:14:36;9;6;
61815;PMS5003;73144;-35.164;149.098;2024-02-16T11:17:08;7;7;
61815;PMS5003;73144;-35.164;149.098;2024-02-16T11:19:40;6;5;
61815;PMS5003;73144;-35.164;149.098;2024-02-16T11:22:10;6;5;
61815;PMS5003;73144;-35.164;149.098;2024-02-16T11:24:43;5;5;
61815;PMS5003;73144;-35.164;149.098;2024-02-16T11:27:13;6;6;
61815;PMS5003;73144;-35.164;149.098;2024-02-16T11:29:43;5;5;
61815;PMS5003;73144;-35.164;149.098;2024-02-16T11:32:13;7;7;
61815;PMS5003;73144;-35.164;149.098;2024-02-16T11:34:43;9;7;
61815;PMS5003;73144;-35.164;149.098;2024-02-16T11:37:12;5;5;
61815;PMS5003;73144;-35.164;149.098;2024-02-16T11:39:41;5;5;
61815;PMS5003;73144;-35.164;149.098;2024-02-16T11:42:11;4;3;
61815;PMS5003;73144;-35.164;149.098;2024-02-16T11:44:50;3;3;
61815;PMS5003;73144;-35.164;149.098;2024-02-16T11:47:21;2;2;
61815;PMS5003;73144;-35.164;149.098;2024-02-16T11:50:00;1;1;
61815;PMS5003;73144;-35.164;149.098;2024-02-16T11:52:29;3;2;
61815;PMS5003;73144;-35.164;149.098;2024-02-16T11:54:59;2;2;
61815;PMS5003;73144;-35.164;149.098;2024-02-16T11:57:28;3;2;
61815;PMS5003;73144;-35.164;149.098;2024-02-16T11:59:58;2;2;
61815;PMS5003;73144;-35.164;149.098;2024-02-16T12:02:28;0;0;
61815;PMS5003;73144;-35.164;149.098;2024-02-16T12:04:58;1;1;
61815;PMS5003;73144;-35.164;149.098;2024-02-16T12:07:27;4;3;
61815;PMS5003;73144;-35.164;149.098;2024-02-16T12:09:57;2;2;
61815;PMS5003;73144;-35.164;149.098;2024-02-16T12:12:26;1;1;
61815;PMS5003;73144;-35.164;149.098;2024-02-16T12:14:55;2;1;
61815;PMS5003;73144;-35.164;149.098;2024-02-16T12:17:25;2;2;
61815;PMS5003;73144;-35.164;149.098;2024-02-16T12:19:55;0;0;
61815;PMS5003;73144;-35.164;149.098;2024-02-16T12:22:24;2;2;
61815;PMS5003;73144;-35.164;149.098;2024-02-16T12:24:53;2;2;
61815;PMS5003;73144;-35.164;149.098;2024-02-16T12:27:22;5;3;
61815;PMS5003;73144;-35.164;149.098;2024-02-16T12:29:50;3;3;
61815;PMS5003;73144;-35.164;149.098;2024-02-16T12:32:19;3;3;
61815;PMS5003;73144;-35.164;149.098;2024-02-16T12:34:48;2;2;
61815;PMS5003;73144;-35.164;149.098;2024-02-16T12:37:18;2;2;
61815;PMS5003;73144;-35.164;149.098;2024-02-16T12:39:47;2;2;
61815;PMS5003;73144;-35.164;149.098;2024-02-16T12:42:15;4;3;
61815;PMS5003;73144;-35.164;149.098;2024-02-16T12:44:44;3;2;
61815;PMS5003;73144;-35.164;149.098;2024-02-16T12:47:12;3;3;
61815;PMS5003;73144;-35.164;149.098;2024-02-16T12:49:41;4;4;
61815;PMS5003;73144;-35.164;149.098;2024-02-16T12:52:09;6;4;
61815;PMS5003;73144;-35.164;149.098;2024-02-16T12:54:47;3;3;
61815;PMS5003;73144;-35.164;149.098;2024-02-16T12:57:16;4;4;
61815;PMS5003;73144;-35.164;149.098;2024-02-16T12:59:45;6;5;
61815;PMS5003;73144;-35.164;149.098;2024-02-16T13:02:15;5;5;
61815;PMS5003;73144;-35.164;149.098;2024-02-16T13:04:44;3;3;
61815;PMS5003;73144;-35.164;149.098;2024-02-16T13:07:13;3;3;
61815;PMS5003;73144;-35.164;149.098;2024-02-16T13:09:41;4;2;
61815;PMS5003;73144;-35.164;149.098;2024-02-16T13:12:10;4;4;
61815;PMS5003;73144;-35.164;149.098;2024-02-16T13:14:38;4;4;
61815;PMS5003;73144;-35.164;149.098;2024-02-16T13:17:07;4;4;
61815;PMS5003;73144;-35.164;149.098;2024-02-16T13:19:36;4;4;
61815;PMS5003;73144;-35.164;149.098;2024-02-16T13:22:05;6;4;
61815;PMS5003;73144;-35.164;149.098;2024-02-16T13:24:34;5;4;
61815;PMS5003;73144;-35.164;149.098;2024-02-16T13:27:03;3;3;
61815;PMS5003;73144;-35.164;149.098;2024-02-16T13:29:32;6;6;
61815;PMS5003;73144;-35.164;149.098;2024-02-16T13:32:02;4;4;
61815;PMS5003;73144;-35.164;149.098;2024-02-16T13:34:31;3;3;
61815;PMS5003;73144;-35.164;149.098;2024-02-16T13:36:59;5;3;
61815;PMS5003;73144;-35.164;149.098;2024-02-16T13:39:28;5;4;
61815;PMS5003;73144;-35.164;149.098;2024-02-16T13:41:56;5;5;
61815;PMS5003;73144;-35.164;149.098;2024-02-16T13:44:26;3;3;
61815;PMS5003;73144;-35.164;149.098;2024-02-16T13:46:55;5;5;
61815;PMS5003;73144;-35.164;149.098;2024-02-16T13:49:24;4;4;
61815;PMS5003;73144;-35.164;149.098;2024-02-16T13:51:52;4;4;
61815;PMS5003;73144;-35.164;149.098;2024-02-16T13:54:22;4;4;
61815;PMS5003;73144;-35.164;149.098;2024-02-16T13:56:50;3;3;
61815;PMS5003;73144;-35.164;149.098;2024-02-16T13:59:19;4;4;
61815;PMS5003;73144;-35.164;149.098;2024-02-16T14:01:48;5;3;
61815;PMS5003;73144;-35.164;149.098;2024-02-16T14:04:17;5;5;
61815;PMS5003;73144;-35.164;149.098;2024-02-16T14:06:46;3;3;
61815;PMS5003;73144;-35.164;149.098;2024-02-16T14:09:14;2;2;
61815;PMS5003;73144;-35.164;149.098;2024-02-16T14:11:45;5;5;
61815;PMS5003;73144;-35.164;149.098;2024-02-16T14:14:14;5;4;
61815;PMS5003;73144;-35.164;149.098;2024-02-16T14:16:43;5;5;
61815;PMS5003;73144;-35.164;149.098;2024-02-16T14:19:12;4;4;
61815;PMS5003;73144;-35.164;149.098;2024-02-16T14:21:40;4;4;
61815;PMS5003;73144;-35.164;149.098;2024-02-16T14:24:11;7;5;
61815;PMS5003;73144;-35.164;149.098;2024-02-16T14:26:41;5;5;
61815;PMS5003;73144;-35.164;149.098;2024-02-16T14:29:09;4;4;
61815;PMS5003;73144;-35.164;149.098;2024-02-16T14:31:38;4;4;
61815;PMS5003;73144;-35.164;149.098;2024-02-16T14:34:07;6;4;
61815;PMS5003;73144;-35.164;149.098;2024-02-16T14:36:36;4;4;
61815;PMS5003;73144;-35.164;149.098;2024-02-16T14:39:04;5;5;
61815;PMS5003;73144;-35.164;149.098;2024-02-16T14:41:33;3;3;
61815;PMS5003;73144;-35.164;149.098;2024-02-16T14:44:02;5;4;
61815;PMS5003;73144;-35.164;149.098;2024-02-16T14:46:31;4;4;
61815;PMS5003;73144;-35.164;149.098;2024-02-16T14:49:00;4;4;
61815;PMS5003;73144;-35.164;149.098;2024-02-16T14:51:28;3;3;
61815;PMS5003;73144;-35.164;149.098;2024-02-16T14:53:57;6;6;
61815;PMS5003;73144;-35.164;149.098;2024-02-16T14:56:25;3;3;
61815;PMS5003;73144;-35.164;149.098;2024-02-16T14:58:54;3;3;
61815;PMS5003;73144;-35.164;149.098;2024-02-16T15:01:23;5;5;
61815;PMS5003;73144;-35.164;149.098;2024-02-16T15:03:52;4;4;
61815;PMS5003;73144;-35.164;149.098;2024-02-16T15:06:21;4;4;
61815;PMS5003;73144;-35.164;149.098;2024-02-16T15:08:50;3;3;
61815;PMS5003;73144;-35.164;149.098;2024-02-16T15:11:19;5;5;
61815;PMS5003;73144;-35.164;149.098;2024-02-16T15:13:48;4;4;
61815;PMS5003;73144;-35.164;149.098;2024-02-16T15:16:16;4;4;
61815;PMS5003;73144;-35.164;149.098;2024-02-16T15:18:45;4;4;
61815;PMS5003;73144;-35.164;149.098;2024-02-16T15:21:14;4;4;
61815;PMS5003;73144;-35.164;149.098;2024-02-16T15:23:44;2;2;
61815;PMS5003;73144;-35.164;149.098;2024-02-16T15:26:12;6;5;
61815;PMS5003;73144;-35.164;149.098;2024-02-16T15:28:41;4;4;
61815;PMS5003;73144;-35.164;149.098;2024-02-16T15:31:10;6;6;
61815;PMS5003;73144;-35.164;149.098;2024-02-16T15:33:39;4;4;
61815;PMS5003;73144;-35.164;149.098;2024-02-16T15:36:08;3;3;
61815;PMS5003;73144;-35.164;149.098;2024-02-16T15:38:37;4;4;
61815;PMS5003;73144;-35.164;149.098;2024-02-16T15:41:05;4;4;
61815;PMS5003;73144;-35.164;149.098;2024-02-16T15:43:35;4;4;
61815;PMS5003;73144;-35.164;149.098;2024-02-16T15:46:04;5;3;
61815;PMS5003;73144;-35.164;149.098;2024-02-16T15:48:33;2;2;
61815;PMS5003;73144;-35.164;149.098;2024-02-16T15:51:02;4;4;
61815;PMS5003;73144;-35.164;149.098;2024-02-16T15:53:31;2;2;
61815;PMS5003;73144;-35.164;149.098;2024-02-16T15:56:01;5;5;
61815;PMS5003;73144;-35.164;149.098;2024-02-16T15:58:30;2;2;
61815;PMS5003;73144;-35.164;149.098;2024-02-16T16:00:58;5;5;
61815;PMS5003;73144;-35.164;149.098;2024-02-16T16:03:28;6;4;
61815;PMS5003;73144;-35.164;149.098;2024-02-16T16:05:56;4;4;
61815;PMS5003;73144;-35.164;149.098;2024-02-16T16:08:26;3;3;
61815;PMS5003;73144;-35.164;149.098;2024-02-16T16:10:54;5;4;
61815;PMS5003;73144;-35.164;149.098;2024-02-16T16:13:23;8;4;
61815;PMS5003;73144;-35.164;149.098;2024-02-16T16:15:51;4;4;